createdAt,value
2023-02-07T00:07:18.101Z,116.10
2023-02-07T00:17:24.371Z,118.60
2023-02-07T00:27:31.034Z,118.30
2023-02-07T00:37:37.134Z,107.30
2023-02-07T00:47:43.094Z,106.50
2023-02-07T00:57:49.622Z,109.90
2023-02-07T01:07:55.733Z,108.30
2023-02-07T01:18:01.745Z,113.70
2023-02-07T01:28:08.315Z,116.20
2023-02-07T01:38:14.387Z,114.00
2023-02-07T01:48:24.917Z,92.00
2023-02-07T01:58:32.219Z,106.40
2023-02-07T02:08:38.128Z,99.40
2023-02-07T02:18:54.198Z,86.70
2023-02-07T02:29:41.880Z,72.70
2023-02-07T02:39:57.622Z,68.50
2023-02-07T02:50:04.010Z,53.20
2023-02-07T03:00:32.466Z,43.70
2023-02-07T03:10:46.639Z,40.00
2023-02-07T03:20:57.636Z,37.00
2023-02-07T03:31:06.800Z,35.30
2023-02-07T03:41:17.680Z,35.00
2023-02-07T03:51:23.671Z,34.60
2023-02-07T04:01:29.902Z,37.50
2023-02-07T04:11:35.901Z,35.50
2023-02-07T04:21:42.155Z,37.10
2023-02-07T04:31:48.151Z,34.70
2023-02-07T04:41:54.338Z,41.10
2023-02-07T04:52:00.343Z,46.80
2023-02-07T05:02:06.262Z,45.60
2023-02-07T05:12:13.154Z,38.30
2023-02-07T05:22:18.953Z,38.10
2023-02-07T05:32:42.284Z,39.70
2023-02-07T05:43:18.600Z,39.60
2023-02-07T05:53:24.585Z,38.60
2023-02-07T06:03:30.981Z,42.40
2023-02-07T06:13:37.000Z,39.30
2023-02-07T06:23:42.941Z,36.70
2023-02-07T06:33:48.879Z,34.40
2023-02-07T06:43:55.089Z,35.40
2023-02-07T06:54:03.382Z,30.30
2023-02-07T07:04:09.312Z,29.50
2023-02-07T07:14:15.213Z,31.40
2023-02-07T07:24:21.385Z,26.70
2023-02-07T07:34:27.243Z,27.10
2023-02-07T07:44:33.161Z,28.30
2023-02-07T07:54:39.063Z,27.20
2023-02-07T08:04:44.925Z,23.50
2023-02-07T08:14:50.807Z,26.80
2023-02-07T08:35:02.156Z,22.20
2023-02-07T08:45:08.984Z,22.30
2023-02-07T08:55:14.840Z,22.10
2023-02-07T09:05:20.726Z,22.30
2023-02-07T09:15:26.694Z,22.40
2023-02-07T09:35:41.644Z,19.50
2023-02-07T09:45:50.595Z,21.00
2023-02-07T09:55:59.445Z,22.30
2023-02-07T10:06:18.304Z,22.20
2023-02-07T10:16:39.202Z,22.50
2023-02-07T10:26:49.566Z,23.50
2023-02-07T10:36:58.198Z,21.70
2023-02-07T10:47:07.738Z,21.50
2023-02-07T10:57:21.233Z,20.40
2023-02-07T11:07:29.311Z,22.20
2023-02-07T11:17:38.272Z,20.90
2023-02-07T11:27:48.024Z,17.70
2023-02-07T11:38:04.616Z,13.00
2023-02-07T11:48:19.943Z,11.30
2023-02-07T11:58:34.379Z,9.80
2023-02-07T12:08:42.745Z,9.80
2023-02-07T12:18:55.074Z,9.50
2023-02-07T12:29:16.452Z,7.80
2023-02-07T12:39:31.176Z,7.20
2023-02-07T12:50:04.688Z,9.10
2023-02-07T13:00:16.484Z,9.90
2023-02-07T13:10:31.747Z,10.60
2023-02-07T13:20:52.265Z,11.10
2023-02-07T13:31:00.053Z,12.60
2023-02-07T13:41:13.232Z,11.10
2023-02-07T13:51:28.707Z,11.30
2023-02-07T14:01:37.104Z,15.00
2023-02-07T14:11:45.066Z,13.70
2023-02-07T14:22:17.984Z,14.90
2023-02-07T14:32:32.650Z,15.50
2023-02-07T14:42:39.572Z,14.40
2023-02-07T14:52:47.637Z,13.50
2023-02-07T15:02:57.798Z,14.10
2023-02-07T15:13:07.269Z,13.80
2023-02-07T15:23:16.727Z,14.40
2023-02-07T15:33:27.929Z,14.30
2023-02-07T15:43:35.814Z,16.50
2023-02-07T15:53:41.955Z,18.70
2023-02-07T16:13:56.698Z,15.40
2023-02-07T16:24:06.476Z,15.70
2023-02-07T16:34:15.198Z,14.70
2023-02-07T16:44:24.272Z,17.80
2023-02-07T16:54:30.479Z,15.90
2023-02-07T17:04:36.574Z,19.50
2023-02-07T17:14:42.598Z,16.90
2023-02-07T17:24:48.947Z,15.40
2023-02-07T17:34:54.896Z,13.70
2023-02-07T17:45:00.800Z,13.60
2023-02-07T17:55:07.845Z,12.80
2023-02-07T18:05:13.787Z,14.80
2023-02-07T18:15:20.314Z,13.40
2023-02-07T18:25:28.068Z,16.40
2023-02-07T18:35:34.653Z,16.90
2023-02-07T18:45:43.689Z,18.10
2023-02-07T18:55:49.610Z,17.10
2023-02-07T19:05:59.312Z,17.60
2023-02-07T19:16:07.850Z,19.00
2023-02-07T19:26:13.731Z,19.90
2023-02-07T19:36:22.317Z,17.90
2023-02-07T19:46:28.738Z,19.90
2023-02-07T19:56:36.702Z,21.30
2023-02-07T20:06:42.626Z,20.00
2023-02-07T20:16:49.235Z,19.30
2023-02-07T20:26:55.161Z,22.30
2023-02-07T20:37:01.190Z,16.70
2023-02-07T20:57:12.015Z,10.10
2023-02-07T21:07:18.311Z,13.60
2023-02-07T21:17:24.461Z,13.10
2023-02-07T21:27:30.967Z,7.30
2023-02-07T21:37:37.160Z,6.40
2023-02-07T21:47:43.090Z,3.70
2023-02-07T21:57:49.033Z,5.70
2023-02-07T22:17:59.429Z,6.10
2023-02-07T22:28:06.041Z,4.10
2023-02-07T22:38:13.755Z,7.30
2023-02-07T22:48:19.611Z,6.20
2023-02-07T22:58:25.618Z,6.80
2023-02-07T23:08:31.392Z,9.90
2023-02-07T23:18:37.361Z,6.60
2023-02-07T23:28:45.073Z,6.50
2023-02-07T23:38:51.517Z,7.70
2023-02-07T23:48:57.504Z,9.20
2023-02-07T23:59:03.285Z,12.60
